createdAt,value
2022-10-18T00:05:19.864Z,79
2022-10-18T00:15:27.334Z,80
2022-10-18T00:25:34.623Z,79
2022-10-18T00:35:41.368Z,80
2022-10-18T00:45:48.155Z,80
2022-10-18T00:55:55.249Z,80
2022-10-18T01:06:05.153Z,80
2022-10-18T01:16:12.857Z,80
2022-10-18T01:26:20.507Z,81
2022-10-18T01:36:28.104Z,81
2022-10-18T01:46:38.619Z,81
2022-10-18T01:56:36.697Z,81
2022-10-18T02:06:44.339Z,82
2022-10-18T02:16:51.958Z,82
2022-10-18T02:26:59.627Z,82
2022-10-18T02:37:07.243Z,82
2022-10-18T02:47:14.807Z,82
2022-10-18T02:57:22.383Z,82
2022-10-18T03:07:32.022Z,82
2022-10-18T03:17:33.513Z,81
2022-10-18T03:27:42.263Z,81
2022-10-18T03:37:51.321Z,81
2022-10-18T03:48:00.321Z,81
2022-10-18T03:58:09.442Z,80
2022-10-18T04:08:18.409Z,80
2022-10-18T04:18:27.301Z,80
2022-10-18T04:28:29.526Z,80
2022-10-18T04:38:38.586Z,81
2022-10-18T04:48:47.622Z,82
2022-10-18T04:58:56.640Z,81
2022-10-18T05:09:05.674Z,80
2022-10-18T05:19:14.785Z,79
2022-10-18T05:29:30.981Z,78
2022-10-18T05:39:33.085Z,79
2022-10-18T05:49:32.197Z,79
2022-10-18T05:59:42.282Z,78
2022-10-18T06:09:42.127Z,78
2022-10-18T06:19:51.383Z,78
2022-10-18T06:29:51.468Z,78
2022-10-18T06:40:00.602Z,78
2022-10-18T06:50:00.743Z,78
2022-10-18T07:00:09.878Z,78
2022-10-18T07:10:18.917Z,77
2022-10-18T07:20:27.914Z,76
2022-10-18T07:30:36.979Z,76
2022-10-18T07:40:46.398Z,76
2022-10-18T07:50:56.059Z,76
2022-10-18T08:00:56.873Z,75
2022-10-18T08:10:57.061Z,72
2022-10-18T08:21:09.074Z,68
2022-10-18T08:31:07.666Z,67
2022-10-18T08:41:17.421Z,65
2022-10-18T08:51:27.346Z,65
2022-10-18T09:01:39.158Z,63
2022-10-18T09:11:43.504Z,62
2022-10-18T09:41:41.017Z,60
2022-10-18T09:51:50.108Z,59
2022-10-18T10:12:01.427Z,60
2022-10-18T10:22:38.227Z,60
2022-10-18T10:32:17.173Z,58
2022-10-18T10:52:28.732Z,55
2022-10-18T11:02:36.749Z,55
2022-10-18T11:12:45.161Z,53
2022-10-18T11:22:54.241Z,53
2022-10-18T11:33:04.348Z,55
2022-10-18T11:43:03.295Z,55
2022-10-18T11:53:12.410Z,55
2022-10-18T12:03:21.498Z,56
2022-10-18T12:13:30.719Z,57
2022-10-18T12:23:32.585Z,57
2022-10-18T12:33:33.997Z,58
2022-10-18T12:43:45.740Z,59
2022-10-18T12:53:46.802Z,58
2022-10-18T13:03:47.986Z,59
2022-10-18T13:13:59.331Z,61
2022-10-18T13:23:55.534Z,61
2022-10-18T13:33:55.794Z,59
2022-10-18T13:43:58.215Z,59
2022-10-18T13:54:02.689Z,59
2022-10-18T14:04:02.962Z,59
2022-10-18T14:14:11.899Z,61
2022-10-18T14:24:21.260Z,63
2022-10-18T14:34:30.421Z,63
2022-10-18T14:44:39.461Z,64
2022-10-18T15:24:55.368Z,66
2022-10-18T15:45:06.543Z,67
2022-10-18T16:05:17.817Z,68
2022-10-18T16:15:26.701Z,69
2022-10-18T16:25:27.016Z,69
2022-10-18T16:35:37.723Z,71
2022-10-18T16:45:36.839Z,70
2022-10-18T16:55:45.889Z,70
2022-10-18T17:05:58.660Z,70
2022-10-18T17:15:57.752Z,71
2022-10-18T17:26:15.146Z,72
2022-10-18T17:36:14.041Z,72
2022-10-18T17:46:24.059Z,73
2022-10-18T17:56:27.778Z,75
2022-10-18T18:06:29.516Z,76
2022-10-18T18:16:31.003Z,77
2022-10-18T18:26:40.306Z,77
2022-10-18T18:36:49.296Z,76
2022-10-18T18:46:59.104Z,75
2022-10-18T18:57:07.791Z,74
2022-10-18T19:07:09.616Z,74
2022-10-18T19:17:12.745Z,73
2022-10-18T19:27:24.558Z,74
2022-10-18T19:37:13.898Z,75
2022-10-18T19:47:22.824Z,75
2022-10-18T19:57:34.463Z,74
2022-10-18T20:07:42.431Z,74
2022-10-18T20:17:43.826Z,75
2022-10-18T20:27:45.080Z,77
2022-10-18T20:37:44.413Z,76
2022-10-18T20:47:44.921Z,77
2022-10-18T20:57:54.253Z,77
2022-10-18T21:08:07.950Z,77
2022-10-18T21:18:11.028Z,77
2022-10-18T21:28:12.472Z,77
2022-10-18T21:38:21.416Z,77
2022-10-18T21:48:30.420Z,77
2022-10-18T21:58:39.395Z,78
2022-10-18T22:08:48.341Z,78
2022-10-18T22:18:57.300Z,78
2022-10-18T22:29:06.228Z,79
2022-10-18T22:39:15.054Z,79
2022-10-18T22:49:23.961Z,80
2022-10-18T22:59:32.982Z,79
2022-10-18T23:09:33.217Z,80
2022-10-18T23:19:41.301Z,80
2022-10-18T23:29:50.275Z,81
2022-10-18T23:39:59.223Z,81
2022-10-18T23:50:08.199Z,81
